Time;durP1;ratioP1;P1;durP2;ratioP2;P2;SDS_P1;SDS_P2;PMS_P1;PMS_P2;Temp;Humidity;BMP_temperature;BMP_pressure;BME280_temperature;BME280_humidity;BME280_pressure;Samples;Min_cycle;Max_cycle;Signal;HPM_P1;HPM_P2
2020/12/23 01:06:49;;;;;;;4.60;4.20;;;;;;;;;;4795623;24;20304;-89
2020/12/23 01:09:19;;;;;;;5.35;4.85;;;;;;;;;;4774519;30;20578;-90
2020/12/23 01:11:50;;;;;;;4.43;4.03;;;;;;;;;;4775008;30;20211;-90
2020/12/23 01:14:20;;;;;;;5.05;4.35;;;;;;;;;;4774781;30;20302;-89
2020/12/23 01:16:53;;;;;;;6.00;5.07;;;;;;;;;;4774592;30;20540;-90
2020/12/23 01:19:21;;;;;;;5.75;5.10;;;;;;;;;;4774470;30;20197;-89
2020/12/23 01:21:49;;;;;;;4.15;3.78;;;;;;;;;;4774831;30;20302;-89
2020/12/23 01:24:16;;;;;;;4.35;3.95;;;;;;;;;;4774642;30;20211;-89
2020/12/23 01:26:43;;;;;;;4.22;3.83;;;;;;;;;;4774552;30;20285;-89
2020/12/23 01:29:10;;;;;;;3.88;3.58;;;;;;;;;;4774649;30;20232;-89
2020/12/23 01:31:40;;;;;;;4.60;4.20;;;;;;;;;;4774827;30;20208;-89
2020/12/23 01:35:18;;;;;;;;;;;;;;;;;;;;;
2020/12/23 01:38:11;;;;;;;5.55;4.55;;;;;;;;;;4778148;30;20207;-93
2020/12/23 01:46:41;;;;;;;4.85;4.35;;;;;;;;;;4723276;30;20220;-91
2020/12/23 01:49:16;;;;;;;6.20;4.30;;;;;;;;;;4723528;30;20233;-93
2020/12/23 01:51:47;;;;;;;4.55;4.15;;;;;;;;;;4723160;30;20233;-94
2020/12/23 01:57:04;;;;;;;3.90;3.55;;;;;;;;;;4664171;30;20278;-86
2020/12/23 01:59:31;;;;;;;4.20;3.10;;;;;;;;;;4671205;30;20564;-88
2020/12/23 02:02:31;;;;;;;5.00;4.57;;;;;;;;;;4673713;30;20586;-90
2020/12/23 02:05:00;;;;;;;5.38;4.53;;;;;;;;;;4670180;30;20242;-90
2020/12/23 02:07:28;;;;;;;4.43;4.03;;;;;;;;;;4671060;30;20200;-89
2020/12/23 02:09:58;;;;;;;4.93;4.53;;;;;;;;;;4671315;30;20219;-90
2020/12/23 02:12:26;;;;;;;7.47;5.55;;;;;;;;;;4671224;30;20226;-89
2020/12/23 02:14:55;;;;;;;5.35;4.85;;;;;;;;;;4739320;30;20218;-89
2020/12/23 02:17:22;;;;;;;5.60;4.78;;;;;;;;;;4777050;30;20196;-89
2020/12/23 02:19:50;;;;;;;5.28;4.78;;;;;;;;;;4776794;30;20204;-88
2020/12/23 02:22:22;;;;;;;5.35;4.85;;;;;;;;;;4776886;30;20586;-87
2020/12/23 02:24:52;;;;;;;5.35;4.85;;;;;;;;;;4775058;30;20208;-88
2020/12/23 02:27:20;;;;;;;6.20;5.45;;;;;;;;;;4776836;30;20192;-87
2020/12/23 02:29:49;;;;;;;6.63;4.75;;;;;;;;;;4776803;30;20259;-87
2020/12/23 02:32:16;;;;;;;8.75;5.07;;;;;;;;;;4777155;30;20210;-88
2020/12/23 02:34:44;;;;;;;8.70;5.18;;;;;;;;;;4780335;30;20203;-88
2020/12/23 02:37:12;;;;;;;8.93;5.80;;;;;;;;;;4777599;30;20524;-87
2020/12/23 02:39:40;;;;;;;12.23;5.90;;;;;;;;;;4776525;30;20208;-88
2020/12/23 02:42:10;;;;;;;12.40;5.90;;;;;;;;;;4776563;30;20660;-89
2020/12/23 02:44:37;;;;;;;5.25;4.78;;;;;;;;;;4774603;30;20338;-88
2020/12/23 02:47:08;;;;;;;19.65;6.75;;;;;;;;;;4776220;30;20210;-87
2020/12/23 02:49:35;;;;;;;5.22;4.70;;;;;;;;;;4776335;30;20227;-89
2020/12/23 02:52:02;;;;;;;30.08;7.60;;;;;;;;;;4776400;30;20247;-88
2020/12/23 02:54:29;;;;;;;30.15;7.75;;;;;;;;;;4776444;30;20244;-88
2020/12/23 02:56:57;;;;;;;5.90;4.60;;;;;;;;;;4776339;30;20208;-87
2020/12/23 02:59:25;;;;;;;69.30;11.32;;;;;;;;;;4776073;30;20212;-88
2020/12/23 03:01:52;;;;;;;16.45;6.10;;;;;;;;;;4774055;30;20451;-89
2020/12/23 03:04:19;;;;;;;8.50;4.70;;;;;;;;;;4776230;30;20566;-88
2020/12/23 03:06:46;;;;;;;20.13;6.93;;;;;;;;;;4775787;30;20624;-89
2020/12/23 03:09:14;;;;;;;32.78;7.05;;;;;;;;;;4773903;30;20598;-87
2020/12/23 03:11:41;;;;;;;48.63;8.32;;;;;;;;;;4776435;30;20522;-88
2020/12/23 03:14:10;;;;;;;16.40;6.43;;;;;;;;;;4776098;30;20208;-88
2020/12/23 03:16:38;;;;;;;34.92;7.75;;;;;;;;;;4776127;30;20207;-88
2020/12/23 03:19:05;;;;;;;16.48;6.63;;;;;;;;;;4776673;30;20216;-89
2020/12/23 03:21:32;;;;;;;11.43;5.80;;;;;;;;;;4776357;30;20314;-89
2020/12/23 03:24:00;;;;;;;6.97;5.53;;;;;;;;;;4776325;30;20563;-89
2020/12/23 03:26:27;;;;;;;39.33;7.72;;;;;;;;;;4776133;30;20320;-88
2020/12/23 03:28:54;;;;;;;21.77;7.07;;;;;;;;;;4776146;30;20231;-88
2020/12/23 03:31:22;;;;;;;32.85;7.30;;;;;;;;;;4776215;30;20475;-88
2020/12/23 03:33:50;;;;;;;26.48;6.95;;;;;;;;;;4776238;30;20211;-88
2020/12/23 03:36:17;;;;;;;41.42;8.50;;;;;;;;;;4776193;30;20261;-88
2020/12/23 03:38:44;;;;;;;22.75;6.20;;;;;;;;;;4776066;30;20207;-88
2020/12/23 03:41:11;;;;;;;9.32;5.30;;;;;;;;;;4776033;30;20199;-87
2020/12/23 03:43:38;;;;;;;22.40;6.82;;;;;;;;;;4775986;30;20214;-89
2020/12/23 03:46:05;;;;;;;12.50;6.43;;;;;;;;;;4776253;30;20531;-88
2020/12/23 03:48:32;;;;;;;6.50;5.90;;;;;;;;;;4775763;30;20318;-89
2020/12/23 03:51:00;;;;;;;5.80;5.30;;;;;;;;;;4775533;30;20622;-87
2020/12/23 03:53:27;;;;;;;7.53;5.28;;;;;;;;;;4776273;30;20277;-88
2020/12/23 03:55:54;;;;;;;5.68;5.13;;;;;;;;;;4776058;30;20290;-88
2020/12/23 03:58:21;;;;;;;5.43;4.90;;;;;;;;;;4775117;30;20200;-88
2020/12/23 04:00:48;;;;;;;6.30;5.70;;;;;;;;;;4775862;30;20184;-88
2020/12/23 04:03:15;;;;;;;7.70;5.97;;;;;;;;;;4775914;30;20222;-89
2020/12/23 04:05:42;;;;;;;6.07;5.40;;;;;;;;;;4775414;30;20637;-88
2020/12/23 04:08:10;;;;;;;8.60;6.38;;;;;;;;;;4775537;30;20599;-88
2020/12/23 04:10:37;;;;;;;6.57;5.35;;;;;;;;;;4775608;30;20605;-88
2020/12/23 04:13:04;;;;;;;5.85;5.28;;;;;;;;;;4775521;30;20204;-89
2020/12/23 04:15:31;;;;;;;6.13;5.53;;;;;;;;;;4775712;30;20283;-88
2020/12/23 04:17:58;;;;;;;5.93;5.32;;;;;;;;;;4775542;30;20220;-89
2020/12/23 04:20:25;;;;;;;5.65;5.15;;;;;;;;;;4775372;30;20228;-89
2020/12/23 04:22:52;;;;;;;5.65;5.15;;;;;;;;;;4775541;30;20208;-88
2020/12/23 04:25:20;;;;;;;7.32;6.40;;;;;;;;;;4775353;30;20218;-88
2020/12/23 04:27:47;;;;;;;6.47;5.82;;;;;;;;;;4775397;30;20508;-89
2020/12/23 04:30:14;;;;;;;6.10;5.50;;;;;;;;;;4775010;30;20227;-88
2020/12/23 04:32:41;;;;;;;6.43;5.82;;;;;;;;;;4775248;30;20471;-88
2020/12/23 04:35:08;;;;;;;7.28;5.35;;;;;;;;;;4775391;30;20208;-88
2020/12/23 04:37:35;;;;;;;6.18;5.57;;;;;;;;;;4775369;30;20218;-89
2020/12/23 04:40:04;;;;;;;7.38;6.25;;;;;;;;;;4775583;30;20215;-88
2020/12/23 04:42:32;;;;;;;7.30;6.68;;;;;;;;;;4775337;30;20248;-91
2020/12/23 04:45:00;;;;;;;6.95;6.25;;;;;;;;;;4774986;30;20307;-89
2020/12/23 04:47:27;;;;;;;6.78;5.93;;;;;;;;;;4775342;30;20185;-90
2020/12/23 04:49:56;;;;;;;8.02;5.18;;;;;;;;;;4775213;30;20308;-89
2020/12/23 04:52:31;;;;;;;7.47;6.18;;;;;;;;;;4775009;30;20232;-90
2020/12/23 04:55:00;;;;;;;7.13;6.43;;;;;;;;;;4775317;30;20218;-88
2020/12/23 04:57:28;;;;;;;5.88;5.28;;;;;;;;;;4775294;30;20214;-89
2020/12/23 04:59:57;;;;;;;6.00;5.25;;;;;;;;;;4775138;30;20208;-89
2020/12/23 05:02:24;;;;;;;6.50;5.78;;;;;;;;;;4775337;30;20212;-89
2020/12/23 05:04:51;;;;;;;6.10;5.53;;;;;;;;;;4775252;30;20240;-89
2020/12/23 05:07:20;;;;;;;6.30;5.70;;;;;;;;;;4775591;30;20212;-90
2020/12/23 05:09:49;;;;;;;6.53;5.75;;;;;;;;;;4777701;30;20232;-90
2020/12/23 05:12:17;;;;;;;7.07;6.38;;;;;;;;;;4778880;30;20204;-89
2020/12/23 05:14:44;;;;;;;7.72;6.93;;;;;;;;;;4778622;30;20524;-88
2020/12/23 05:17:12;;;;;;;8.48;6.45;;;;;;;;;;4778806;30;20211;-88
2020/12/23 05:19:42;;;;;;;8.15;7.03;;;;;;;;;;4778749;30;20188;-88
2020/12/23 05:22:10;;;;;;;9.00;6.47;;;;;;;;;;4778745;30;20310;-89
2020/12/23 05:24:39;;;;;;;8.73;6.03;;;;;;;;;;4778351;30;20306;-90
2020/12/23 05:27:07;;;;;;;7.88;6.28;;;;;;;;;;4778264;30;20200;-89
2020/12/23 05:29:35;;;;;;;8.57;6.53;;;;;;;;;;4778021;30;20618;-90
2020/12/23 05:32:03;;;;;;;7.88;7.07;;;;;;;;;;4778324;30;20396;-89
2020/12/23 05:34:35;;;;;;;10.77;6.10;;;;;;;;;;4778238;30;20211;-88
2020/12/23 05:37:03;;;;;;;7.03;6.30;;;;;;;;;;4778426;30;20211;-89
2020/12/23 05:39:32;;;;;;;7.07;5.57;;;;;;;;;;4778118;30;20292;-89
2020/12/23 05:41:59;;;;;;;9.95;5.90;;;;;;;;;;4778269;30;20215;-89
2020/12/23 05:44:27;;;;;;;7.25;6.03;;;;;;;;;;4778005;30;20184;-88
2020/12/23 05:46:55;;;;;;;10.48;5.43;;;;;;;;;;4778504;30;20272;-89
2020/12/23 05:49:24;;;;;;;8.23;6.30;;;;;;;;;;4778045;30;20232;-89
2020/12/23 05:51:53;;;;;;;6.80;4.78;;;;;;;;;;4777891;30;20232;-89
2020/12/23 05:54:22;;;;;;;5.43;4.50;;;;;;;;;;4778251;30;20235;-90
2020/12/23 05:56:52;;;;;;;4.50;4.03;;;;;;;;;;4777943;30;20208;-90
2020/12/23 05:59:20;;;;;;;4.47;4.07;;;;;;;;;;4778257;30;20218;-90
2020/12/23 06:01:47;;;;;;;3.80;3.50;;;;;;;;;;4778094;30;20444;-90
2020/12/23 06:04:15;;;;;;;4.22;3.92;;;;;;;;;;4778065;30;20499;-90
2020/12/23 06:06:44;;;;;;;4.80;4.15;;;;;;;;;;4777609;30;20243;-89
2020/12/23 06:09:15;;;;;;;3.58;3.28;;;;;;;;;;4777517;30;20570;-88
2020/12/23 06:11:44;;;;;;;4.38;4.00;;;;;;;;;;4777405;30;20223;-89
2020/12/23 06:14:19;;;;;;;4.88;4.38;;;;;;;;;;4777785;30;20261;-89
2020/12/23 06:16:51;;;;;;;8.05;4.72;;;;;;;;;;4777832;30;20278;-89
2020/12/23 06:19:25;;;;;;;3.80;3.47;;;;;;;;;;4777752;30;20218;-90
2020/12/23 06:21:55;;;;;;;4.55;4.15;;;;;;;;;;4776984;30;20235;-91
2020/12/23 06:24:24;;;;;;;3.60;3.30;;;;;;;;;;4777829;30;20291;-91
2020/12/23 06:26:54;;;;;;;3.63;3.33;;;;;;;;;;4777339;30;20214;-90
2020/12/23 06:29:23;;;;;;;4.63;4.10;;;;;;;;;;4777504;30;20207;-90
2020/12/23 06:31:56;;;;;;;4.20;3.80;;;;;;;;;;4777324;30;20204;-89
2020/12/23 06:34:24;;;;;;;4.55;4.15;;;;;;;;;;4777355;30;20196;-88
2020/12/23 06:36:53;;;;;;;3.80;3.50;;;;;;;;;;4777067;30;20189;-90
2020/12/23 06:39:32;;;;;;;4.45;4.05;;;;;;;;;;4777009;30;20188;-90
2020/12/23 06:42:30;;;;;;;4.50;4.10;;;;;;;;;;4777505;30;20212;-89
2020/12/23 06:45:12;;;;;;;4.13;3.80;;;;;;;;;;4777631;30;20293;-92
2020/12/23 06:47:43;;;;;;;4.30;3.90;;;;;;;;;;4776897;30;20615;-91
2020/12/23 06:50:32;;;;;;;4.65;4.25;;;;;;;;;;4776859;30;20228;-91
2020/12/23 06:52:59;;;;;;;4.15;3.75;;;;;;;;;;4777388;30;20236;-88
2020/12/23 06:55:47;;;;;;;11.15;5.07;;;;;;;;;;4776750;30;20275;-90
2020/12/23 06:58:40;;;;;;;5.03;3.72;;;;;;;;;;4776823;30;20204;-89
2020/12/23 07:01:20;;;;;;;3.40;3.00;;;;;;;;;;4777201;30;20212;-90
2020/12/23 07:03:48;;;;;;;4.25;3.50;;;;;;;;;;4776967;30;20222;-88
2020/12/23 07:06:35;;;;;;;5.50;3.58;;;;;;;;;;4776545;30;20236;-90
2020/12/23 07:09:05;;;;;;;67.30;14.07;;;;;;;;;;4776789;30;20212;-89
2020/12/23 07:11:36;;;;;;;10.98;3.90;;;;;;;;;;4776320;30;20681;-89
2020/12/23 07:14:05;;;;;;;12.73;5.78;;;;;;;;;;4776820;30;20225;-89
2020/12/23 07:16:41;;;;;;;14.65;5.32;;;;;;;;;;4776629;30;20208;-89
2020/12/23 07:19:08;;;;;;;4.63;3.05;;;;;;;;;;4776640;30;20203;-89
2020/12/23 07:21:35;;;;;;;4.15;3.20;;;;;;;;;;4776349;30;20676;-88
2020/12/23 07:24:03;;;;;;;2.80;2.08;;;;;;;;;;4776513;30;20223;-87
2020/12/23 07:26:30;;;;;;;2.67;2.47;;;;;;;;;;4776198;30;20207;-88
2020/12/23 07:28:59;;;;;;;2.85;2.65;;;;;;;;;;4776349;30;20203;-87
2020/12/23 07:31:26;;;;;;;3.58;3.28;;;;;;;;;;4775889;30;20224;-87
2020/12/23 07:33:53;;;;;;;3.72;3.30;;;;;;;;;;4776118;30;20211;-89
2020/12/23 07:36:20;;;;;;;3.83;3.53;;;;;;;;;;4776490;30;20214;-87
2020/12/23 07:38:53;;;;;;;4.60;4.20;;;;;;;;;;4776106;30;20484;-88
2020/12/23 07:41:20;;;;;;;4.22;3.92;;;;;;;;;;4776175;30;20208;-89
2020/12/23 07:43:47;;;;;;;3.85;3.55;;;;;;;;;;4776087;30;20215;-89
2020/12/23 07:46:21;;;;;;;4.32;3.92;;;;;;;;;;4776379;30;20216;-89
2020/12/23 07:48:48;;;;;;;4.70;4.30;;;;;;;;;;4776426;30;20589;-89
2020/12/23 07:51:15;;;;;;;5.75;4.10;;;;;;;;;;4775577;30;20231;-91
2020/12/23 07:53:48;;;;;;;4.80;4.30;;;;;;;;;;4776109;30;20216;-89
2020/12/23 07:56:15;;;;;;;3.55;3.25;;;;;;;;;;4704169;30;20594;-90
2020/12/23 07:58:44;;;;;;;3.95;3.13;;;;;;;;;;4703754;30;20230;-89
2020/12/23 08:01:12;;;;;;;3.42;3.13;;;;;;;;;;4704220;30;20218;-90
2020/12/23 08:03:40;;;;;;;3.65;3.35;;;;;;;;;;4704272;30;20542;-89
2020/12/23 08:06:11;;;;;;;2.65;2.42;;;;;;;;;;4704248;30;20257;-87
2020/12/23 08:08:40;;;;;;;2.53;2.38;;;;;;;;;;4701917;30;20582;-87
2020/12/23 08:11:08;;;;;;;2.38;2.28;;;;;;;;;;4703568;30;20256;-90
2020/12/23 08:13:36;;;;;;;2.78;2.58;;;;;;;;;;4716328;30;20283;-89
2020/12/23 08:16:05;;;;;;;2.63;2.38;;;;;;;;;;4775301;30;20547;-88
2020/12/23 08:18:32;;;;;;;3.42;3.17;;;;;;;;;;4774877;30;20218;-87
2020/12/23 08:21:10;;;;;;;2.20;2.08;;;;;;;;;;4775117;30;20498;-88
2020/12/23 08:23:37;;;;;;;3.10;2.90;;;;;;;;;;4773082;30;20278;-87
2020/12/23 08:26:05;;;;;;;2.42;2.22;;;;;;;;;;4775566;30;20218;-87
2020/12/23 08:28:35;;;;;;;2.63;2.40;;;;;;;;;;4774910;29;20575;-87
2020/12/23 08:31:04;;;;;;;2.53;2.33;;;;;;;;;;4774662;30;20240;-88
2020/12/23 08:33:33;;;;;;;2.15;2.00;;;;;;;;;;4774812;30;20234;-89
2020/12/23 08:36:04;;;;;;;2.90;1.80;;;;;;;;;;4775002;30;20215;-87
2020/12/23 08:38:32;;;;;;;2.00;1.88;;;;;;;;;;4774931;30;20208;-85
2020/12/23 08:41:01;;;;;;;2.10;1.30;;;;;;;;;;4758654;30;20210;-87
2020/12/23 08:43:31;;;;;;;1.60;1.50;;;;;;;;;;4774231;30;20196;-84
2020/12/23 08:45:59;;;;;;;1.83;1.05;;;;;;;;;;4772420;30;20219;-88
2020/12/23 08:48:30;;;;;;;1.27;0.90;;;;;;;;;;4774316;30;20481;-87
2020/12/23 08:50:59;;;;;;;1.20;1.10;;;;;;;;;;4774556;30;20250;-88
2020/12/23 08:53:31;;;;;;;0.85;0.85;;;;;;;;;;4774634;30;20224;-88
2020/12/23 08:56:00;;;;;;;1.70;0.70;;;;;;;;;;4774779;30;20204;-88
2020/12/23 08:58:30;;;;;;;0.75;0.75;;;;;;;;;;4774383;30;20208;-90
2020/12/23 09:00:59;;;;;;;0.70;0.70;;;;;;;;;;4774455;30;20204;-88
2020/12/23 09:03:27;;;;;;;0.57;0.57;;;;;;;;;;4774524;30;20533;-88
2020/12/23 09:05:57;;;;;;;0.70;0.70;;;;;;;;;;4774301;30;20246;-89
2020/12/23 09:08:26;;;;;;;0.50;0.50;;;;;;;;;;4775770;30;20223;-88
2020/12/23 09:10:56;;;;;;;0.70;0.70;;;;;;;;;;4775961;30;20242;-89
2020/12/23 09:13:31;;;;;;;0.60;0.60;;;;;;;;;;4775784;30;20227;-89
2020/12/23 09:15:58;;;;;;;0.70;0.70;;;;;;;;;;4775314;30;20203;-88
2020/12/23 09:18:26;;;;;;;0.50;0.50;;;;;;;;;;4775037;30;20274;-89
2020/12/23 09:21:00;;;;;;;1.17;0.57;;;;;;;;;;4775273;30;20383;-89
2020/12/23 09:23:27;;;;;;;0.70;0.70;;;;;;;;;;4774850;30;20222;-89
2020/12/23 09:25:55;;;;;;;0.50;0.50;;;;;;;;;;4775033;30;20564;-86
2020/12/23 09:28:26;;;;;;;0.57;0.57;;;;;;;;;;4775137;30;20226;-88
2020/12/23 09:31:00;;;;;;;0.70;0.70;;;;;;;;;;4775644;30;20242;-88
2020/12/23 09:33:28;;;;;;;0.75;0.60;;;;;;;;;;4775709;30;20204;-88
2020/12/23 09:36:05;;;;;;;1.00;0.88;;;;;;;;;;4775125;30;20220;-86
2020/12/23 09:38:34;;;;;;;0.70;0.70;;;;;;;;;;4774799;30;20196;-86
2020/12/23 09:41:04;;;;;;;0.60;0.60;;;;;;;;;;4775394;30;20224;-86
2020/12/23 09:43:33;;;;;;;1.40;0.90;;;;;;;;;;4775302;30;20204;-86
2020/12/23 09:46:04;;;;;;;1.55;0.57;;;;;;;;;;4774853;30;20199;-85
2020/12/23 09:48:31;;;;;;;1.38;1.10;;;;;;;;;;4775157;30;20232;-86
2020/12/23 09:50:58;;;;;;;1.80;1.17;;;;;;;;;;4774978;30;20239;-86
2020/12/23 09:53:27;;;;;;;1.38;1.27;;;;;;;;;;4774697;30;20476;-86
2020/12/23 09:55:55;;;;;;;1.50;1.40;;;;;;;;;;4776914;30;20207;-86
2020/12/23 09:58:23;;;;;;;1.67;1.58;;;;;;;;;;4777830;30;20208;-89
2020/12/23 10:00:52;;;;;;;2.15;1.23;;;;;;;;;;4778889;30;20208;-88
2020/12/23 10:03:19;;;;;;;1.17;1.17;;;;;;;;;;4777660;30;20188;-88
2020/12/23 10:05:47;;;;;;;1.20;1.20;;;;;;;;;;4777506;30;20259;-89
2020/12/23 10:08:14;;;;;;;3.30;1.25;;;;;;;;;;4777951;30;20237;-88
2020/12/23 10:10:41;;;;;;;1.90;1.65;;;;;;;;;;4777604;30;20224;-89
2020/12/23 10:13:08;;;;;;;1.25;1.17;;;;;;;;;;4778098;30;20219;-88
2020/12/23 10:15:36;;;;;;;1.50;1.40;;;;;;;;;;4777382;30;20540;-88
2020/12/23 10:18:04;;;;;;;1.17;1.13;;;;;;;;;;4778139;30;20565;-88
2020/12/23 10:20:31;;;;;;;1.23;1.20;;;;;;;;;;4777817;30;20239;-88
2020/12/23 10:22:58;;;;;;;1.45;1.20;;;;;;;;;;4778630;30;20291;-89
2020/12/23 10:25:25;;;;;;;1.15;1.10;;;;;;;;;;4777001;30;20238;-88
2020/12/23 10:27:52;;;;;;;1.05;1.05;;;;;;;;;;4778079;30;20211;-89
2020/12/23 10:30:19;;;;;;;1.00;1.00;;;;;;;;;;4778230;30;20207;-88
2020/12/23 10:32:47;;;;;;;1.30;1.25;;;;;;;;;;4777576;30;20246;-88
2020/12/23 10:35:14;;;;;;;1.23;1.23;;;;;;;;;;4778483;30;20219;-90
2020/12/23 10:37:42;;;;;;;1.00;1.00;;;;;;;;;;4777413;30;20611;-90
2020/12/23 10:40:09;;;;;;;1.10;1.00;;;;;;;;;;4777099;30;20215;-90
2020/12/23 10:42:36;;;;;;;0.70;0.70;;;;;;;;;;4777459;30;20244;-89
2020/12/23 10:45:06;;;;;;;1.55;0.80;;;;;;;;;;4777574;30;20208;-90
2020/12/23 10:47:34;;;;;;;0.77;0.77;;;;;;;;;;4778210;30;20295;-89
2020/12/23 10:50:03;;;;;;;1.00;1.00;;;;;;;;;;4777565;30;20204;-90
2020/12/23 10:52:30;;;;;;;2.20;2.10;;;;;;;;;;4777505;30;20231;-89
2020/12/23 10:54:57;;;;;;;0.75;0.75;;;;;;;;;;4776984;30;20585;-89
2020/12/23 10:57:25;;;;;;;0.80;0.80;;;;;;;;;;4777345;30;20284;-88
2020/12/23 10:59:52;;;;;;;1.85;0.93;;;;;;;;;;4777224;30;20303;-89
2020/12/23 11:02:19;;;;;;;0.75;0.63;;;;;;;;;;4777168;30;20473;-88
2020/12/23 11:04:46;;;;;;;6.40;1.05;;;;;;;;;;4774395;30;20646;-86
2020/12/23 11:07:14;;;;;;;1.13;1.13;;;;;;;;;;4777210;30;20208;-86
2020/12/23 11:09:42;;;;;;;0.77;0.77;;;;;;;;;;4776999;30;20530;-86
2020/12/23 11:12:09;;;;;;;0.95;0.93;;;;;;;;;;4777065;30;20232;-88
2020/12/23 11:14:38;;;;;;;0.98;0.98;;;;;;;;;;4776261;30;20302;-89
2020/12/23 11:17:05;;;;;;;0.60;0.60;;;;;;;;;;4776433;30;20204;-88
2020/12/23 11:19:32;;;;;;;0.60;0.60;;;;;;;;;;4776297;30;20215;-89
2020/12/23 11:21:59;;;;;;;0.80;0.80;;;;;;;;;;4775864;30;20341;-91
2020/12/23 11:24:28;;;;;;;0.55;0.55;;;;;;;;;;4779121;30;20213;-90
2020/12/23 11:26:55;;;;;;;0.90;0.90;;;;;;;;;;4776235;30;20208;-91
2020/12/23 11:29:22;;;;;;;0.90;0.90;;;;;;;;;;4776101;30;20277;-90
2020/12/23 11:31:52;;;;;;;0.90;0.90;;;;;;;;;;4776286;30;20280;-90
2020/12/23 11:34:20;;;;;;;0.70;0.70;;;;;;;;;;4775765;30;20286;-90
2020/12/23 11:36:47;;;;;;;0.70;0.70;;;;;;;;;;4775194;30;20636;-89
2020/12/23 11:39:14;;;;;;;1.05;0.95;;;;;;;;;;4776010;30;20218;-91
2020/12/23 11:41:44;;;;;;;1.25;1.00;;;;;;;;;;4776170;30;20204;-91
2020/12/23 11:44:11;;;;;;;2.78;1.20;;;;;;;;;;4775915;30;20231;-89
2020/12/23 11:46:40;;;;;;;0.80;0.80;;;;;;;;;;4775678;30;20224;-92
2020/12/23 11:49:07;;;;;;;1.40;1.30;;;;;;;;;;4775697;30;20215;-91
2020/12/23 11:51:37;;;;;;;1.35;1.25;;;;;;;;;;4775508;30;20319;-90
2020/12/23 11:54:07;;;;;;;1.60;1.50;;;;;;;;;;4772894;30;20253;-92
2020/12/23 11:56:41;;;;;;;1.55;1.45;;;;;;;;;;4774033;30;20243;-91
2020/12/23 11:59:22;;;;;;;1.98;1.88;;;;;;;;;;4775017;30;20196;-92
2020/12/23 12:02:15;;;;;;;2.25;2.05;;;;;;;;;;4774578;30;20582;-91
2020/12/23 12:04:47;;;;;;;3.03;2.83;;;;;;;;;;4774234;30;20219;-92
2020/12/23 12:11:01;;;;;;;3.10;2.80;;;;;;;;;;4762864;30;20444;-95
2020/12/23 12:13:32;;;;;;;4.15;2.78;;;;;;;;;;4776272;30;20235;-91
2020/12/23 12:16:06;;;;;;;2.65;2.45;;;;;;;;;;4775509;30;20223;-91
2020/12/23 12:19:06;;;;;;;3.65;2.78;;;;;;;;;;4774960;30;20219;-90
2020/12/23 12:25:12;;;;;;;2.33;2.08;;;;;;;;;;4769452;30;20237;-90
2020/12/23 12:27:41;;;;;;;2.65;2.45;;;;;;;;;;4775775;30;20218;-91
2020/12/23 12:30:22;;;;;;;2.03;1.92;;;;;;;;;;4775819;30;20477;-93
2020/12/23 12:42:10;;;;;;;1.58;1.45;;;;;;;;;;5645411;24;20305;-94
2020/12/23 12:47:19;;;;;;;2.40;2.25;;;;;;;;;;4748825;30;20591;-90
2020/12/23 12:49:46;;;;;;;2.05;1.90;;;;;;;;;;4753920;30;20212;-92
2020/12/23 12:52:13;;;;;;;1.45;1.35;;;;;;;;;;4747425;30;20306;-87
2020/12/23 12:54:40;;;;;;;2.97;1.80;;;;;;;;;;4740126;30;20237;-87
2020/12/23 12:57:07;;;;;;;2.40;2.20;;;;;;;;;;4739909;30;20228;-86
2020/12/23 12:59:39;;;;;;;2.10;2.00;;;;;;;;;;4739832;30;20201;-87
2020/12/23 13:02:06;;;;;;;2.47;2.28;;;;;;;;;;4739794;30;20213;-89
2020/12/23 13:04:33;;;;;;;2.08;1.88;;;;;;;;;;4761702;30;20266;-87
2020/12/23 13:07:00;;;;;;;1.90;1.80;;;;;;;;;;4751395;30;20259;-88
2020/12/23 13:09:27;;;;;;;2.15;2.05;;;;;;;;;;4756992;30;20287;-89
2020/12/23 13:11:59;;;;;;;2.15;2.05;;;;;;;;;;4757134;30;20536;-88
2020/12/23 13:14:27;;;;;;;2.00;1.77;;;;;;;;;;4740939;30;20224;-88
2020/12/23 13:16:58;;;;;;;1.80;1.70;;;;;;;;;;4733801;30;20531;-89
2020/12/23 13:19:25;;;;;;;2.00;1.90;;;;;;;;;;4757230;30;20291;-89
2020/12/23 13:21:53;;;;;;;2.03;1.92;;;;;;;;;;4757521;30;20230;-86
2020/12/23 13:24:20;;;;;;;1.27;1.27;;;;;;;;;;4757047;30;20208;-86
2020/12/23 13:26:51;;;;;;;1.48;1.38;;;;;;;;;;4757231;30;20248;-86
2020/12/23 13:29:19;;;;;;;1.70;1.60;;;;;;;;;;4757344;30;20571;-85
2020/12/23 13:31:46;;;;;;;1.80;1.60;;;;;;;;;;4760239;30;20296;-89
2020/12/23 13:34:14;;;;;;;2.08;1.60;;;;;;;;;;4760380;30;20222;-86
2020/12/23 13:36:41;;;;;;;2.58;1.50;;;;;;;;;;4760491;30;20250;-87
2020/12/23 13:39:10;;;;;;;1.80;1.70;;;;;;;;;;4760814;30;20224;-87
2020/12/23 13:41:37;;;;;;;1.30;1.20;;;;;;;;;;4760181;30;20564;-86
2020/12/23 13:44:05;;;;;;;2.10;1.90;;;;;;;;;;4761245;30;20270;-86
2020/12/23 13:47:35;;;;;;;2.17;1.50;;;;;;;;;;4760907;30;20205;-90
2020/12/23 13:50:07;;;;;;;1.40;1.30;;;;;;;;;;4724747;30;20227;-89
2020/12/23 13:52:38;;;;;;;1.73;1.40;;;;;;;;;;4724456;30;20253;-89
2020/12/23 14:43:08;;;;;;;1.42;1.20;;;;;;;;;;5110448;24;20277;-87
2020/12/23 14:45:35;;;;;;;3.40;2.78;;;;;;;;;;4777459;30;20215;-88
2020/12/23 14:48:02;;;;;;;1.60;1.50;;;;;;;;;;4776151;30;20559;-86
2020/12/23 14:50:29;;;;;;;1.05;1.05;;;;;;;;;;4776080;30;20200;-86
2020/12/23 14:52:56;;;;;;;1.42;1.33;;;;;;;;;;4773939;30;20223;-86
2020/12/23 14:55:23;;;;;;;1.17;1.08;;;;;;;;;;4774781;30;20214;-86
2020/12/23 14:57:50;;;;;;;1.33;1.00;;;;;;;;;;4775392;30;20212;-86
2020/12/23 15:00:18;;;;;;;0.82;0.82;;;;;;;;;;4771651;30;20565;-85
2020/12/23 15:02:45;;;;;;;1.40;1.30;;;;;;;;;;4776290;30;20218;-86
2020/12/23 15:05:12;;;;;;;1.38;1.05;;;;;;;;;;4775740;30;20582;-86
2020/12/23 15:07:39;;;;;;;2.65;1.20;;;;;;;;;;4762945;30;20224;-86
2020/12/23 15:10:06;;;;;;;1.45;1.35;;;;;;;;;;4758348;30;20615;-86
2020/12/23 15:12:33;;;;;;;1.83;1.52;;;;;;;;;;4758549;30;20219;-87
2020/12/23 15:15:00;;;;;;;17.67;15.93;;;;;;;;;;4758299;30;20292;-86
2020/12/23 15:17:28;;;;;;;5.13;4.47;;;;;;;;;;4758585;30;20207;-87
2020/12/23 15:19:55;;;;;;;2.50;2.30;;;;;;;;;;4758040;30;20193;-87
2020/12/23 15:22:22;;;;;;;1.90;1.80;;;;;;;;;;4758042;30;20283;-87
2020/12/23 15:24:49;;;;;;;3.53;3.33;;;;;;;;;;4757969;30;20205;-87
2020/12/23 15:27:16;;;;;;;2.92;2.38;;;;;;;;;;4757881;30;20307;-86
2020/12/23 15:29:43;;;;;;;2.47;2.28;;;;;;;;;;4755642;30;20637;-85
2020/12/23 15:32:11;;;;;;;2.80;2.60;;;;;;;;;;4758063;30;20496;-86
2020/12/23 15:34:39;;;;;;;2.15;2.05;;;;;;;;;;4757616;30;20319;-88
2020/12/23 15:37:06;;;;;;;2.72;2.50;;;;;;;;;;4755974;30;20232;-85
2020/12/23 15:39:34;;;;;;;2.00;1.77;;;;;;;;;;4757501;30;20193;-87
2020/12/23 15:42:01;;;;;;;1.70;1.60;;;;;;;;;;4757335;30;20228;-87
2020/12/23 15:44:28;;;;;;;4.13;2.55;;;;;;;;;;4758083;30;20232;-89
2020/12/23 15:46:57;;;;;;;3.40;1.75;;;;;;;;;;4757264;30;20303;-86
2020/12/23 15:49:24;;;;;;;2.15;1.95;;;;;;;;;;4757346;30;20564;-87
2020/12/23 15:51:52;;;;;;;1.45;1.35;;;;;;;;;;4757872;30;20216;-87
2020/12/23 15:54:22;;;;;;;1.60;1.50;;;;;;;;;;4757061;30;20311;-84
2020/12/23 15:56:49;;;;;;;0.90;0.90;;;;;;;;;;4758189;30;20235;-87
2020/12/23 15:59:16;;;;;;;1.38;1.27;;;;;;;;;;4758046;30;20208;-86
2020/12/23 16:01:44;;;;;;;1.30;1.20;;;;;;;;;;4757784;30;20220;-87
2020/12/23 16:04:10;;;;;;;1.83;1.20;;;;;;;;;;4757936;30;20216;-87
2020/12/23 16:06:41;;;;;;;1.10;1.10;;;;;;;;;;4757783;30;20324;-88
2020/12/23 16:09:09;;;;;;;0.98;0.98;;;;;;;;;;4757869;30;20262;-88
2020/12/23 16:11:36;;;;;;;1.25;1.15;;;;;;;;;;4757909;30;20212;-86
2020/12/23 16:14:03;;;;;;;1.60;1.50;;;;;;;;;;4757463;30;20316;-86
2020/12/23 16:16:30;;;;;;;1.42;1.33;;;;;;;;;;4757727;30;20237;-88
2020/12/23 16:18:57;;;;;;;1.15;1.15;;;;;;;;;;4757965;30;20279;-88
2020/12/23 16:21:26;;;;;;;1.02;1.02;;;;;;;;;;4757978;30;20578;-89
2020/12/23 16:23:53;;;;;;;1.20;1.17;;;;;;;;;;4758742;30;20528;-87
2020/12/23 16:26:21;;;;;;;1.30;1.20;;;;;;;;;;4757842;30;20199;-88
2020/12/23 16:28:48;;;;;;;1.40;1.30;;;;;;;;;;4758814;30;20213;-87
2020/12/23 16:31:15;;;;;;;1.30;1.30;;;;;;;;;;4758397;30;20218;-88
2020/12/23 16:33:42;;;;;;;1.30;1.30;;;;;;;;;;4757639;30;20587;-85
2020/12/23 16:36:09;;;;;;;1.00;1.00;;;;;;;;;;4757574;30;20232;-87
2020/12/23 16:38:36;;;;;;;1.48;1.38;;;;;;;;;;4758386;30;20200;-88
2020/12/23 16:41:03;;;;;;;1.70;1.60;;;;;;;;;;4757334;30;20279;-87
2020/12/23 16:43:31;;;;;;;1.67;1.58;;;;;;;;;;4757263;30;20321;-87
2020/12/23 16:45:58;;;;;;;1.00;1.00;;;;;;;;;;4758049;30;20208;-86
2020/12/23 16:48:25;;;;;;;1.40;1.30;;;;;;;;;;4758106;30;20616;-86
2020/12/23 16:50:52;;;;;;;1.02;1.02;;;;;;;;;;4758049;30;20434;-86
2020/12/23 16:53:19;;;;;;;1.17;1.13;;;;;;;;;;4758108;30;20242;-86
2020/12/23 16:55:46;;;;;;;1.92;1.52;;;;;;;;;;4757079;30;20580;-88
2020/12/23 16:58:13;;;;;;;0.93;0.93;;;;;;;;;;4757830;30;20215;-86
2020/12/23 17:00:41;;;;;;;1.23;1.20;;;;;;;;;;4757803;30;20197;-86
2020/12/23 17:03:08;;;;;;;1.80;1.10;;;;;;;;;;4757937;30;20564;-86
2020/12/23 17:05:35;;;;;;;1.20;1.10;;;;;;;;;;4759812;30;20303;-87
2020/12/23 17:08:02;;;;;;;1.30;1.20;;;;;;;;;;4760557;30;20304;-87
2020/12/23 17:10:29;;;;;;;1.00;0.90;;;;;;;;;;4761376;30;20205;-87
2020/12/23 17:12:56;;;;;;;1.17;1.10;;;;;;;;;;4760967;30;20184;-91
2020/12/23 17:15:24;;;;;;;0.98;0.98;;;;;;;;;;4753555;30;20212;-85
2020/12/23 17:17:52;;;;;;;2.75;1.13;;;;;;;;;;4759306;30;20213;-89